sensor_id;sensor_type;location;lat;lon;timestamp;P1;durP1;ratioP1;P2;durP2;ratioP2
78308;SDS011;67566;42.022;21.356;2023-02-15T06:47:13;18.75;;;11.38;;
78308;SDS011;67566;42.022;21.356;2023-02-15T06:49:38;18.42;;;11.90;;
78308;SDS011;67566;42.022;21.356;2023-02-15T06:52:04;18.73;;;11.55;;
78308;SDS011;67566;42.022;21.356;2023-02-15T06:54:29;19.10;;;11.80;;
78308;SDS011;67566;42.022;21.356;2023-02-15T06:56:55;22.80;;;11.68;;
78308;SDS011;67566;42.022;21.356;2023-02-15T06:59:20;24.73;;;12.32;;
78308;SDS011;67566;42.022;21.356;2023-02-15T07:01:46;18.17;;;11.30;;
78308;SDS011;67566;42.022;21.356;2023-02-15T07:04:13;17.80;;;11.30;;
78308;SDS011;67566;42.022;21.356;2023-02-15T07:06:38;19.05;;;11.48;;
78308;SDS011;67566;42.022;21.356;2023-02-15T07:09:04;17.95;;;9.75;;
78308;SDS011;67566;42.022;21.356;2023-02-15T07:11:29;14.75;;;9.43;;
78308;SDS011;67566;42.022;21.356;2023-02-15T07:14:13;17.23;;;9.32;;
78308;SDS011;67566;42.022;21.356;2023-02-15T07:16:39;16.02;;;9.15;;
78308;SDS011;67566;42.022;21.356;2023-02-15T07:19:04;14.98;;;9.57;;
78308;SDS011;67566;42.022;21.356;2023-02-15T07:21:30;16.88;;;9.93;;
78308;SDS011;67566;42.022;21.356;2023-02-15T07:23:55;15.50;;;9.77;;
78308;SDS011;67566;42.022;21.356;2023-02-15T07:26:22;15.70;;;10.18;;
78308;SDS011;67566;42.022;21.356;2023-02-15T07:28:48;18.05;;;10.40;;
78308;SDS011;67566;42.022;21.356;2023-02-15T07:31:14;16.13;;;10.35;;
78308;SDS011;67566;42.022;21.356;2023-02-15T07:33:39;16.85;;;10.15;;
78308;SDS011;67566;42.022;21.356;2023-02-15T07:36:05;15.50;;;9.95;;
78308;SDS011;67566;42.022;21.356;2023-02-15T07:38:35;24.48;;;12.57;;
78308;SDS011;67566;42.022;21.356;2023-02-15T07:41:02;32.28;;;18.35;;
78308;SDS011;67566;42.022;21.356;2023-02-15T07:43:29;22.10;;;13.73;;
78308;SDS011;67566;42.022;21.356;2023-02-15T07:46:05;18.40;;;10.70;;
78308;SDS011;67566;42.022;21.356;2023-02-15T07:48:35;13.43;;;9.75;;
78308;SDS011;67566;42.022;21.356;2023-02-15T07:51:01;26.33;;;17.60;;
78308;SDS011;67566;42.022;21.356;2023-02-15T07:53:29;20.35;;;12.30;;
78308;SDS011;67566;42.022;21.356;2023-02-15T07:55:58;17.60;;;10.77;;
78308;SDS011;67566;42.022;21.356;2023-02-15T07:58:24;19.23;;;13.02;;
78308;SDS011;67566;42.022;21.356;2023-02-15T08:01:10;25.10;;;14.55;;
78308;SDS011;67566;42.022;21.356;2023-02-15T08:03:35;18.52;;;13.05;;
78308;SDS011;67566;42.022;21.356;2023-02-15T08:06:00;13.95;;;9.68;;
78308;SDS011;67566;42.022;21.356;2023-02-15T08:08:26;12.80;;;8.75;;
78308;SDS011;67566;42.022;21.356;2023-02-15T08:13:45;12.25;;;8.13;;
78308;SDS011;67566;42.022;21.356;2023-02-15T08:19:13;12.63;;;8.23;;
78308;SDS011;67566;42.022;21.356;2023-02-15T08:21:40;15.05;;;11.93;;
78308;SDS011;67566;42.022;21.356;2023-02-15T08:24:08;12.05;;;9.45;;
78308;SDS011;67566;42.022;21.356;2023-02-15T08:26:35;21.85;;;15.32;;
78308;SDS011;67566;42.022;21.356;2023-02-15T08:29:01;13.73;;;10.57;;
78308;SDS011;67566;42.022;21.356;2023-02-15T08:31:27;10.88;;;8.38;;
78308;SDS011;67566;42.022;21.356;2023-02-15T08:33:54;10.55;;;8.07;;
78308;SDS011;67566;42.022;21.356;2023-02-15T08:36:22;9.27;;;7.68;;
78308;SDS011;67566;42.022;21.356;2023-02-15T08:38:49;11.63;;;9.20;;
78308;SDS011;67566;42.022;21.356;2023-02-15T08:41:23;12.35;;;8.52;;
78308;SDS011;67566;42.022;21.356;2023-02-15T08:43:54;11.45;;;9.20;;
78308;SDS011;67566;42.022;21.356;2023-02-15T08:46:22;12.88;;;10.27;;
78308;SDS011;67566;42.022;21.356;2023-02-15T08:48:49;12.90;;;10.10;;
78308;SDS011;67566;42.022;21.356;2023-02-15T08:51:19;13.88;;;10.07;;
78308;SDS011;67566;42.022;21.356;2023-02-15T08:53:50;10.65;;;8.68;;
78308;SDS011;67566;42.022;21.356;2023-02-15T08:56:18;11.15;;;8.68;;
78308;SDS011;67566;42.022;21.356;2023-02-15T08:58:46;10.45;;;9.23;;
78308;SDS011;67566;42.022;21.356;2023-02-15T09:01:13;10.77;;;7.75;;
78308;SDS011;67566;42.022;21.356;2023-02-15T09:03:45;12.68;;;9.40;;
78308;SDS011;67566;42.022;21.356;2023-02-15T09:06:13;10.05;;;8.65;;
78308;SDS011;67566;42.022;21.356;2023-02-15T09:08:40;9.15;;;8.05;;
78308;SDS011;67566;42.022;21.356;2023-02-15T09:11:06;11.50;;;9.52;;
78308;SDS011;67566;42.022;21.356;2023-02-15T09:13:33;12.00;;;9.45;;
78308;SDS011;67566;42.022;21.356;2023-02-15T09:16:00;12.25;;;10.15;;
78308;SDS011;67566;42.022;21.356;2023-02-15T09:18:31;12.65;;;9.57;;
78308;SDS011;67566;42.022;21.356;2023-02-15T09:21:10;9.63;;;8.43;;
78308;SDS011;67566;42.022;21.356;2023-02-15T09:23:38;15.20;;;13.05;;
78308;SDS011;67566;42.022;21.356;2023-02-15T09:26:11;11.35;;;9.85;;
78308;SDS011;67566;42.022;21.356;2023-02-15T09:28:41;10.18;;;8.15;;
78308;SDS011;67566;42.022;21.356;2023-02-15T09:33:34;9.63;;;8.38;;
78308;SDS011;67566;42.022;21.356;2023-02-15T09:36:00;9.32;;;8.32;;
78308;SDS011;67566;42.022;21.356;2023-02-15T09:38:26;10.55;;;9.45;;
78308;SDS011;67566;42.022;21.356;2023-02-15T09:49:43;9.98;;;9.05;;
78308;SDS011;67566;42.022;21.356;2023-02-15T10:08:38;11.68;;;10.57;;
78308;SDS011;67566;42.022;21.356;2023-02-15T10:28:06;10.73;;;9.63;;
78308;SDS011;67566;42.022;21.356;2023-02-15T10:30:52;16.45;;;14.93;;
78308;SDS011;67566;42.022;21.356;2023-02-15T10:41:36;11.60;;;10.50;;
78308;SDS011;67566;42.022;21.356;2023-02-15T10:49:37;10.05;;;9.15;;
78308;SDS011;67566;42.022;21.356;2023-02-15T10:54:46;14.23;;;12.73;;
78308;SDS011;67566;42.022;21.356;2023-02-15T10:57:29;10.85;;;9.85;;
78308;SDS011;67566;42.022;21.356;2023-02-15T11:08:37;13.48;;;12.10;;
78308;SDS011;67566;42.022;21.356;2023-02-15T11:11:10;19.75;;;14.27;;
78308;SDS011;67566;42.022;21.356;2023-02-15T11:13:43;11.27;;;10.10;;
78308;SDS011;67566;42.022;21.356;2023-02-15T11:16:16;19.73;;;16.05;;
78308;SDS011;67566;42.022;21.356;2023-02-15T11:21:26;10.40;;;9.40;;
78308;SDS011;67566;42.022;21.356;2023-02-15T11:23:57;10.07;;;9.05;;
78308;SDS011;67566;42.022;21.356;2023-02-15T11:26:36;10.18;;;9.20;;
78308;SDS011;67566;42.022;21.356;2023-02-15T11:29:13;9.45;;;8.55;;
78308;SDS011;67566;42.022;21.356;2023-02-15T11:34:37;12.60;;;10.70;;
78308;SDS011;67566;42.022;21.356;2023-02-15T11:37:12;15.82;;;11.93;;
78308;SDS011;67566;42.022;21.356;2023-02-15T11:39:42;15.40;;;12.18;;
78308;SDS011;67566;42.022;21.356;2023-02-15T11:42:16;12.20;;;11.00;;
78308;SDS011;67566;42.022;21.356;2023-02-15T11:44:54;16.33;;;11.38;;
78308;SDS011;67566;42.022;21.356;2023-02-15T11:47:21;12.02;;;9.90;;
78308;SDS011;67566;42.022;21.356;2023-02-15T11:49:47;10.80;;;8.82;;
78308;SDS011;67566;42.022;21.356;2023-02-15T11:52:13;17.88;;;15.65;;
78308;SDS011;67566;42.022;21.356;2023-02-15T11:54:45;25.52;;;19.73;;
78308;SDS011;67566;42.022;21.356;2023-02-15T11:57:16;21.33;;;17.10;;
78308;SDS011;67566;42.022;21.356;2023-02-15T11:59:56;15.25;;;12.35;;
78308;SDS011;67566;42.022;21.356;2023-02-15T12:02:41;16.25;;;13.77;;
78308;SDS011;67566;42.022;21.356;2023-02-15T12:05:18;14.80;;;13.00;;
78308;SDS011;67566;42.022;21.356;2023-02-15T12:10:22;14.70;;;11.63;;
78308;SDS011;67566;42.022;21.356;2023-02-15T12:15:42;14.93;;;12.18;;
78308;SDS011;67566;42.022;21.356;2023-02-15T12:18:31;13.57;;;10.50;;
78308;SDS011;67566;42.022;21.356;2023-02-15T12:21:02;16.38;;;12.63;;
78308;SDS011;67566;42.022;21.356;2023-02-15T12:23:32;14.00;;;11.63;;
78308;SDS011;67566;42.022;21.356;2023-02-15T12:25:58;14.80;;;11.48;;
78308;SDS011;67566;42.022;21.356;2023-02-15T12:31:07;13.50;;;11.35;;
78308;SDS011;67566;42.022;21.356;2023-02-15T12:33:44;13.25;;;10.70;;
78308;SDS011;67566;42.022;21.356;2023-02-15T12:36:12;12.10;;;9.35;;
78308;SDS011;67566;42.022;21.356;2023-02-15T12:38:43;14.70;;;10.73;;
78308;SDS011;67566;42.022;21.356;2023-02-15T12:41:32;13.43;;;9.73;;
78308;SDS011;67566;42.022;21.356;2023-02-15T12:49:35;14.32;;;11.27;;
78308;SDS011;67566;42.022;21.356;2023-02-15T12:52:05;13.25;;;10.07;;
78308;SDS011;67566;42.022;21.356;2023-02-15T12:54:52;11.57;;;9.00;;
78308;SDS011;67566;42.022;21.356;2023-02-15T12:57:27;14.15;;;11.15;;
78308;SDS011;67566;42.022;21.356;2023-02-15T13:02:23;13.82;;;10.18;;
78308;SDS011;67566;42.022;21.356;2023-02-15T13:04:51;14.20;;;11.68;;
78308;SDS011;67566;42.022;21.356;2023-02-15T13:07:18;14.35;;;10.77;;
78308;SDS011;67566;42.022;21.356;2023-02-15T13:09:45;15.52;;;10.85;;
78308;SDS011;67566;42.022;21.356;2023-02-15T13:14:45;17.13;;;13.10;;
78308;SDS011;67566;42.022;21.356;2023-02-15T13:17:16;15.63;;;10.45;;
78308;SDS011;67566;42.022;21.356;2023-02-15T13:22:14;15.18;;;11.45;;
78308;SDS011;67566;42.022;21.356;2023-02-15T13:27:37;20.17;;;13.13;;
78308;SDS011;67566;42.022;21.356;2023-02-15T13:30:38;16.08;;;11.70;;
78308;SDS011;67566;42.022;21.356;2023-02-15T13:33:03;14.02;;;9.90;;
78308;SDS011;67566;42.022;21.356;2023-02-15T13:35:41;35.15;;;20.60;;
78308;SDS011;67566;42.022;21.356;2023-02-15T13:38:45;16.48;;;12.00;;
78308;SDS011;67566;42.022;21.356;2023-02-15T13:41:53;17.92;;;12.02;;
78308;SDS011;67566;42.022;21.356;2023-02-15T13:48:44;23.10;;;15.32;;
78308;SDS011;67566;42.022;21.356;2023-02-15T13:52:08;20.08;;;13.88;;
78308;SDS011;67566;42.022;21.356;2023-02-15T14:02:26;15.95;;;11.27;;
78308;SDS011;67566;42.022;21.356;2023-02-15T14:16:49;21.73;;;14.57;;
78308;SDS011;67566;42.022;21.356;2023-02-15T14:19:28;18.58;;;13.23;;
78308;SDS011;67566;42.022;21.356;2023-02-15T14:24:47;21.85;;;15.43;;
78308;SDS011;67566;42.022;21.356;2023-02-15T14:27:36;21.20;;;13.90;;
78308;SDS011;67566;42.022;21.356;2023-02-15T14:30:17;25.92;;;15.90;;
78308;SDS011;67566;42.022;21.356;2023-02-15T14:32:46;19.42;;;13.70;;
78308;SDS011;67566;42.022;21.356;2023-02-15T14:35:20;19.02;;;13.70;;
78308;SDS011;67566;42.022;21.356;2023-02-15T14:37:54;19.42;;;11.57;;
78308;SDS011;67566;42.022;21.356;2023-02-15T14:40:38;29.55;;;19.63;;
78308;SDS011;67566;42.022;21.356;2023-02-15T14:46:10;21.02;;;13.48;;
78308;SDS011;67566;42.022;21.356;2023-02-15T14:48:45;18.60;;;12.50;;
78308;SDS011;67566;42.022;21.356;2023-02-15T14:53:55;21.20;;;11.63;;
78308;SDS011;67566;42.022;21.356;2023-02-15T14:56:21;20.80;;;14.68;;
78308;SDS011;67566;42.022;21.356;2023-02-15T15:01:25;20.98;;;12.63;;
78308;SDS011;67566;42.022;21.356;2023-02-15T15:03:54;20.02;;;12.73;;
78308;SDS011;67566;42.022;21.356;2023-02-15T15:06:26;22.60;;;15.40;;
78308;SDS011;67566;42.022;21.356;2023-02-15T15:16:58;25.60;;;16.73;;
78308;SDS011;67566;42.022;21.356;2023-02-15T15:22:16;18.67;;;12.52;;
78308;SDS011;67566;42.022;21.356;2023-02-15T15:30:01;38.63;;;23.00;;
78308;SDS011;67566;42.022;21.356;2023-02-15T15:32:27;37.63;;;22.55;;
78308;SDS011;67566;42.022;21.356;2023-02-15T15:49:20;82.25;;;43.60;;
78308;SDS011;67566;42.022;21.356;2023-02-15T15:51:49;74.63;;;41.45;;
78308;SDS011;67566;42.022;21.356;2023-02-15T15:54:22;80.47;;;44.88;;
78308;SDS011;67566;42.022;21.356;2023-02-15T15:56:53;59.97;;;32.63;;
78308;SDS011;67566;42.022;21.356;2023-02-15T15:59:25;74.30;;;44.70;;
78308;SDS011;67566;42.022;21.356;2023-02-15T16:01:53;61.10;;;34.30;;
78308;SDS011;67566;42.022;21.356;2023-02-15T16:04:27;54.58;;;29.85;;
78308;SDS011;67566;42.022;21.356;2023-02-15T16:06:55;50.22;;;31.17;;
78308;SDS011;67566;42.022;21.356;2023-02-15T16:09:58;35.33;;;22.40;;
78308;SDS011;67566;42.022;21.356;2023-02-15T16:12:30;36.38;;;22.45;;
78308;SDS011;67566;42.022;21.356;2023-02-15T16:14:57;19.95;;;13.35;;
78308;SDS011;67566;42.022;21.356;2023-02-15T16:17:27;17.38;;;12.30;;
78308;SDS011;67566;42.022;21.356;2023-02-15T16:22:47;86.32;;;48.75;;
78308;SDS011;67566;42.022;21.356;2023-02-15T16:28:30;54.00;;;32.42;;
78308;SDS011;67566;42.022;21.356;2023-02-15T16:31:04;91.53;;;54.17;;
78308;SDS011;67566;42.022;21.356;2023-02-15T16:33:35;51.13;;;32.17;;
78308;SDS011;67566;42.022;21.356;2023-02-15T16:36:03;62.25;;;35.00;;
78308;SDS011;67566;42.022;21.356;2023-02-15T16:41:07;38.53;;;24.98;;
78308;SDS011;67566;42.022;21.356;2023-02-15T16:43:41;50.17;;;31.92;;
78308;SDS011;67566;42.022;21.356;2023-02-15T16:46:11;79.38;;;39.47;;
78308;SDS011;67566;42.022;21.356;2023-02-15T16:48:43;63.15;;;34.83;;
78308;SDS011;67566;42.022;21.356;2023-02-15T16:51:18;50.65;;;26.90;;
78308;SDS011;67566;42.022;21.356;2023-02-15T16:53:49;50.75;;;29.35;;
78308;SDS011;67566;42.022;21.356;2023-02-15T16:56:21;70.90;;;43.20;;
78308;SDS011;67566;42.022;21.356;2023-02-15T16:58:50;47.25;;;29.92;;
78308;SDS011;67566;42.022;21.356;2023-02-15T17:01:20;47.13;;;32.00;;
78308;SDS011;67566;42.022;21.356;2023-02-15T17:06:19;52.40;;;32.58;;
78308;SDS011;67566;42.022;21.356;2023-02-15T17:08:50;50.13;;;32.35;;
78308;SDS011;67566;42.022;21.356;2023-02-15T17:11:17;59.47;;;35.35;;
78308;SDS011;67566;42.022;21.356;2023-02-15T17:16:50;75.93;;;41.45;;
78308;SDS011;67566;42.022;21.356;2023-02-15T17:22:19;64.03;;;35.20;;
78308;SDS011;67566;42.022;21.356;2023-02-15T17:24:47;61.05;;;36.17;;
78308;SDS011;67566;42.022;21.356;2023-02-15T17:27:19;69.03;;;38.83;;
78308;SDS011;67566;42.022;21.356;2023-02-15T17:29:55;65.03;;;38.50;;
78308;SDS011;67566;42.022;21.356;2023-02-15T17:32:26;73.13;;;43.72;;
78308;SDS011;67566;42.022;21.356;2023-02-15T17:40:07;74.97;;;45.30;;
78308;SDS011;67566;42.022;21.356;2023-02-15T17:42:53;74.90;;;43.25;;
78308;SDS011;67566;42.022;21.356;2023-02-15T17:45:19;72.70;;;44.00;;
78308;SDS011;67566;42.022;21.356;2023-02-15T17:47:47;83.95;;;50.40;;
78308;SDS011;67566;42.022;21.356;2023-02-15T17:52:45;108.45;;;64.10;;
78308;SDS011;67566;42.022;21.356;2023-02-15T17:55:15;90.28;;;52.30;;
78308;SDS011;67566;42.022;21.356;2023-02-15T17:58:05;109.82;;;66.35;;
78308;SDS011;67566;42.022;21.356;2023-02-15T18:00:42;138.15;;;76.45;;
78308;SDS011;67566;42.022;21.356;2023-02-15T18:03:38;103.63;;;64.97;;
78308;SDS011;67566;42.022;21.356;2023-02-15T18:06:33;83.22;;;50.25;;
78308;SDS011;67566;42.022;21.356;2023-02-15T18:09:19;117.78;;;69.07;;
78308;SDS011;67566;42.022;21.356;2023-02-15T18:14:52;99.18;;;59.60;;
78308;SDS011;67566;42.022;21.356;2023-02-15T18:17:18;132.88;;;74.38;;
78308;SDS011;67566;42.022;21.356;2023-02-15T18:19:51;118.70;;;65.72;;
78308;SDS011;67566;42.022;21.356;2023-02-15T18:22:18;103.65;;;62.75;;
78308;SDS011;67566;42.022;21.356;2023-02-15T18:24:45;89.00;;;52.20;;
78308;SDS011;67566;42.022;21.356;2023-02-15T18:27:12;109.00;;;60.35;;
78308;SDS011;67566;42.022;21.356;2023-02-15T18:29:38;134.18;;;75.30;;
78308;SDS011;67566;42.022;21.356;2023-02-15T18:32:06;158.82;;;88.32;;
78308;SDS011;67566;42.022;21.356;2023-02-15T18:34:37;158.00;;;88.80;;
78308;SDS011;67566;42.022;21.356;2023-02-15T18:37:06;124.38;;;72.68;;
78308;SDS011;67566;42.022;21.356;2023-02-15T18:42:31;102.22;;;61.22;;
78308;SDS011;67566;42.022;21.356;2023-02-15T18:44:57;132.00;;;69.57;;
78308;SDS011;67566;42.022;21.356;2023-02-15T18:47:24;111.60;;;58.67;;
78308;SDS011;67566;42.022;21.356;2023-02-15T18:49:50;149.43;;;78.82;;
78308;SDS011;67566;42.022;21.356;2023-02-15T18:52:17;132.95;;;75.10;;
78308;SDS011;67566;42.022;21.356;2023-02-15T18:54:46;107.55;;;64.43;;
78308;SDS011;67566;42.022;21.356;2023-02-15T18:57:15;117.38;;;67.50;;
78308;SDS011;67566;42.022;21.356;2023-02-15T18:59:41;97.20;;;55.03;;
78308;SDS011;67566;42.022;21.356;2023-02-15T19:02:17;88.78;;;53.10;;
78308;SDS011;67566;42.022;21.356;2023-02-15T19:04:43;113.30;;;66.00;;
78308;SDS011;67566;42.022;21.356;2023-02-15T19:07:16;94.35;;;55.67;;
78308;SDS011;67566;42.022;21.356;2023-02-15T19:09:46;108.35;;;59.10;;
78308;SDS011;67566;42.022;21.356;2023-02-15T19:12:16;142.35;;;73.60;;
78308;SDS011;67566;42.022;21.356;2023-02-15T19:14:43;121.30;;;60.80;;
78308;SDS011;67566;42.022;21.356;2023-02-15T19:17:13;119.32;;;65.00;;
78308;SDS011;67566;42.022;21.356;2023-02-15T19:19:41;123.70;;;70.55;;
78308;SDS011;67566;42.022;21.356;2023-02-15T19:22:10;119.15;;;65.57;;
78308;SDS011;67566;42.022;21.356;2023-02-15T19:24:41;102.38;;;58.70;;
78308;SDS011;67566;42.022;21.356;2023-02-15T19:27:18;107.78;;;60.63;;
78308;SDS011;67566;42.022;21.356;2023-02-15T19:30:26;100.53;;;56.78;;
78308;SDS011;67566;42.022;21.356;2023-02-15T19:32:54;136.13;;;72.30;;
78308;SDS011;67566;42.022;21.356;2023-02-15T19:35:21;171.20;;;82.55;;
78308;SDS011;67566;42.022;21.356;2023-02-15T19:37:56;148.25;;;73.45;;
78308;SDS011;67566;42.022;21.356;2023-02-15T19:40:25;220.25;;;111.72;;
78308;SDS011;67566;42.022;21.356;2023-02-15T19:42:52;158.93;;;82.57;;
78308;SDS011;67566;42.022;21.356;2023-02-15T19:45:20;102.90;;;59.13;;
78308;SDS011;67566;42.022;21.356;2023-02-15T19:47:47;79.00;;;46.25;;
78308;SDS011;67566;42.022;21.356;2023-02-15T19:50:22;73.90;;;43.85;;
78308;SDS011;67566;42.022;21.356;2023-02-15T19:52:50;79.80;;;44.17;;
78308;SDS011;67566;42.022;21.356;2023-02-15T19:57:48;72.18;;;41.63;;
78308;SDS011;67566;42.022;21.356;2023-02-15T20:00:15;104.72;;;57.97;;
78308;SDS011;67566;42.022;21.356;2023-02-15T20:02:43;117.47;;;63.45;;
78308;SDS011;67566;42.022;21.356;2023-02-15T20:05:09;123.28;;;71.25;;
78308;SDS011;67566;42.022;21.356;2023-02-15T20:07:34;96.72;;;55.38;;
78308;SDS011;67566;42.022;21.356;2023-02-15T20:10:00;106.40;;;62.78;;
78308;SDS011;67566;42.022;21.356;2023-02-15T20:12:27;92.28;;;54.70;;
78308;SDS011;67566;42.022;21.356;2023-02-15T20:14:53;91.68;;;52.47;;
78308;SDS011;67566;42.022;21.356;2023-02-15T20:17:20;108.53;;;58.00;;
78308;SDS011;67566;42.022;21.356;2023-02-15T20:19:46;110.25;;;63.47;;
78308;SDS011;67566;42.022;21.356;2023-02-15T20:22:29;137.40;;;73.68;;
78308;SDS011;67566;42.022;21.356;2023-02-15T20:24:55;125.65;;;64.88;;
78308;SDS011;67566;42.022;21.356;2023-02-15T20:27:21;117.47;;;64.57;;
78308;SDS011;67566;42.022;21.356;2023-02-15T20:29:47;107.85;;;58.28;;
78308;SDS011;67566;42.022;21.356;2023-02-15T20:32:14;104.25;;;59.10;;
78308;SDS011;67566;42.022;21.356;2023-02-15T20:34:39;122.25;;;67.95;;
78308;SDS011;67566;42.022;21.356;2023-02-15T20:37:08;114.93;;;65.82;;
78308;SDS011;67566;42.022;21.356;2023-02-15T20:39:45;99.05;;;56.35;;
78308;SDS011;67566;42.022;21.356;2023-02-15T20:42:11;98.80;;;57.38;;
78308;SDS011;67566;42.022;21.356;2023-02-15T20:44:43;133.50;;;72.50;;
78308;SDS011;67566;42.022;21.356;2023-02-15T20:47:08;103.93;;;58.33;;
78308;SDS011;67566;42.022;21.356;2023-02-15T20:49:34;122.15;;;63.15;;
78308;SDS011;67566;42.022;21.356;2023-02-15T20:51:59;128.70;;;67.35;;
78308;SDS011;67566;42.022;21.356;2023-02-15T20:54:29;122.57;;;64.03;;
78308;SDS011;67566;42.022;21.356;2023-02-15T20:56:57;143.43;;;74.47;;
78308;SDS011;67566;42.022;21.356;2023-02-15T20:59:27;119.75;;;66.20;;
78308;SDS011;67566;42.022;21.356;2023-02-15T21:01:58;129.65;;;67.72;;
78308;SDS011;67566;42.022;21.356;2023-02-15T21:04:39;112.63;;;61.15;;
78308;SDS011;67566;42.022;21.356;2023-02-15T21:07:05;113.47;;;58.33;;
78308;SDS011;67566;42.022;21.356;2023-02-15T21:09:31;124.05;;;65.25;;
78308;SDS011;67566;42.022;21.356;2023-02-15T21:11:57;107.43;;;56.08;;
78308;SDS011;67566;42.022;21.356;2023-02-15T21:14:25;103.93;;;54.20;;
78308;SDS011;67566;42.022;21.356;2023-02-15T21:16:51;88.43;;;48.90;;
78308;SDS011;67566;42.022;21.356;2023-02-15T21:19:18;91.05;;;46.30;;
78308;SDS011;67566;42.022;21.356;2023-02-15T21:21:45;80.50;;;43.20;;
78308;SDS011;67566;42.022;21.356;2023-02-15T21:24:15;91.80;;;46.85;;
78308;SDS011;67566;42.022;21.356;2023-02-15T21:26:46;90.95;;;53.17;;
78308;SDS011;67566;42.022;21.356;2023-02-15T21:29:15;104.80;;;54.75;;
78308;SDS011;67566;42.022;21.356;2023-02-15T21:31:42;111.60;;;56.53;;
78308;SDS011;67566;42.022;21.356;2023-02-15T21:34:07;91.05;;;48.38;;
78308;SDS011;67566;42.022;21.356;2023-02-15T21:36:33;96.40;;;51.58;;
78308;SDS011;67566;42.022;21.356;2023-02-15T21:38:58;72.20;;;41.65;;
78308;SDS011;67566;42.022;21.356;2023-02-15T21:41:24;100.63;;;56.35;;
78308;SDS011;67566;42.022;21.356;2023-02-15T21:44:22;118.50;;;58.25;;
78308;SDS011;67566;42.022;21.356;2023-02-15T21:47:16;115.22;;;61.08;;
78308;SDS011;67566;42.022;21.356;2023-02-15T21:52:48;133.80;;;65.63;;
78308;SDS011;67566;42.022;21.356;2023-02-15T21:55:13;137.38;;;69.72;;
78308;SDS011;67566;42.022;21.356;2023-02-15T21:57:39;115.85;;;58.33;;
78308;SDS011;67566;42.022;21.356;2023-02-15T22:00:05;106.57;;;56.58;;
78308;SDS011;67566;42.022;21.356;2023-02-15T22:02:37;84.63;;;44.55;;
78308;SDS011;67566;42.022;21.356;2023-02-15T22:05:05;122.22;;;59.65;;
78308;SDS011;67566;42.022;21.356;2023-02-15T22:07:36;124.97;;;68.18;;
78308;SDS011;67566;42.022;21.356;2023-02-15T22:10:02;115.15;;;63.30;;
78308;SDS011;67566;42.022;21.356;2023-02-15T22:12:28;111.22;;;58.38;;
78308;SDS011;67566;42.022;21.356;2023-02-15T22:14:54;102.40;;;55.55;;
78308;SDS011;67566;42.022;21.356;2023-02-15T22:17:21;94.28;;;51.75;;
78308;SDS011;67566;42.022;21.356;2023-02-15T22:19:53;102.85;;;53.33;;
78308;SDS011;67566;42.022;21.356;2023-02-15T22:22:19;74.47;;;39.78;;
78308;SDS011;67566;42.022;21.356;2023-02-15T22:24:45;80.70;;;43.55;;
78308;SDS011;67566;42.022;21.356;2023-02-15T22:27:20;73.75;;;41.47;;
78308;SDS011;67566;42.022;21.356;2023-02-15T22:29:49;89.95;;;46.42;;
78308;SDS011;67566;42.022;21.356;2023-02-15T22:32:20;90.55;;;49.78;;
78308;SDS011;67566;42.022;21.356;2023-02-15T22:34:47;96.85;;;51.42;;
78308;SDS011;67566;42.022;21.356;2023-02-15T22:37:13;111.97;;;61.58;;
78308;SDS011;67566;42.022;21.356;2023-02-15T22:39:39;90.72;;;50.08;;
78308;SDS011;67566;42.022;21.356;2023-02-15T22:42:09;96.40;;;55.20;;
78308;SDS011;67566;42.022;21.356;2023-02-15T22:44:45;90.60;;;48.70;;
78308;SDS011;67566;42.022;21.356;2023-02-15T22:47:14;86.60;;;45.65;;
78308;SDS011;67566;42.022;21.356;2023-02-15T22:49:44;87.13;;;48.00;;
78308;SDS011;67566;42.022;21.356;2023-02-15T22:52:11;74.32;;;41.60;;
78308;SDS011;67566;42.022;21.356;2023-02-15T22:54:38;91.15;;;45.08;;
78308;SDS011;67566;42.022;21.356;2023-02-15T22:57:03;85.68;;;41.95;;
78308;SDS011;67566;42.022;21.356;2023-02-15T22:59:30;109.45;;;52.03;;
78308;SDS011;67566;42.022;21.356;2023-02-15T23:01:58;104.70;;;50.17;;
78308;SDS011;67566;42.022;21.356;2023-02-15T23:04:26;103.38;;;46.38;;
78308;SDS011;67566;42.022;21.356;2023-02-15T23:06:53;84.47;;;42.53;;
78308;SDS011;67566;42.022;21.356;2023-02-15T23:09:22;90.28;;;41.83;;
78308;SDS011;67566;42.022;21.356;2023-02-15T23:11:48;85.20;;;44.15;;
78308;SDS011;67566;42.022;21.356;2023-02-15T23:14:26;97.65;;;47.45;;
78308;SDS011;67566;42.022;21.356;2023-02-15T23:16:55;103.55;;;57.15;;
78308;SDS011;67566;42.022;21.356;2023-02-15T23:19:21;112.53;;;57.40;;
78308;SDS011;67566;42.022;21.356;2023-02-15T23:21:46;100.55;;;55.17;;
78308;SDS011;67566;42.022;21.356;2023-02-15T23:24:19;90.50;;;48.70;;
78308;SDS011;67566;42.022;21.356;2023-02-15T23:26:46;66.18;;;35.03;;
78308;SDS011;67566;42.022;21.356;2023-02-15T23:29:13;53.10;;;28.40;;
78308;SDS011;67566;42.022;21.356;2023-02-15T23:31:45;68.00;;;34.45;;
78308;SDS011;67566;42.022;21.356;2023-02-15T23:34:16;83.90;;;40.15;;
78308;SDS011;67566;42.022;21.356;2023-02-15T23:36:45;88.30;;;46.60;;
78308;SDS011;67566;42.022;21.356;2023-02-15T23:41:55;100.25;;;53.03;;
78308;SDS011;67566;42.022;21.356;2023-02-15T23:44:21;93.05;;;49.17;;
78308;SDS011;67566;42.022;21.356;2023-02-15T23:46:47;99.50;;;53.97;;
78308;SDS011;67566;42.022;21.356;2023-02-15T23:49:15;84.28;;;46.35;;
78308;SDS011;67566;42.022;21.356;2023-02-15T23:51:43;85.07;;;45.05;;
78308;SDS011;67566;42.022;21.356;2023-02-15T23:54:11;94.80;;;50.90;;
78308;SDS011;67566;42.022;21.356;2023-02-15T23:56:38;83.00;;;44.17;;
78308;SDS011;67566;42.022;21.356;2023-02-15T23:59:05;84.20;;;43.67;;
